Time;durP1;ratioP1;P1;durP2;ratioP2;P2;SDS_P1;SDS_P2;PMS_P1;PMS_P2;Temp;Humidity;BMP_temperature;BMP_pressure;BME280_temperature;BME280_humidity;BME280_pressure;Samples;Min_cycle;Max_cycle;Signal;HPM_P1;HPM_P2
2022/10/22 00:00:30;;;;;;;35.30;20.00;;;;;;;;;;6162764;28;20019;-75
2022/10/22 00:03:30;;;;;;;33.57;21.07;;;;;;;;;;6167429;28;20038;-75
2022/10/22 00:06:30;;;;;;;34.40;20.63;;;;;;;;;;6167900;28;20403;-75
2022/10/22 00:09:31;;;;;;;36.90;20.67;;;;;;;;;;6171928;28;20545;-75
2022/10/22 00:12:31;;;;;;;36.87;21.83;;;;;;;;;;6160000;28;20019;-75
2022/10/22 00:15:31;;;;;;;35.67;22.50;;;;;;;;;;6186320;28;20718;-75
2022/10/22 00:18:31;;;;;;;33.33;19.58;;;;;;;;;;6173793;28;20277;-75
2022/10/22 00:21:31;;;;;;;35.65;20.02;;;;;;;;;;6174332;28;20027;-75
2022/10/22 00:24:32;;;;;;;39.92;21.50;;;;;;;;;;6163603;28;20058;-75
2022/10/22 00:27:32;;;;;;;42.13;19.15;;;;;;;;;;6171547;28;20492;-74
2022/10/22 00:30:32;;;;;;;43.80;21.00;;;;;;;;;;6163182;28;20022;-74
2022/10/22 00:33:33;;;;;;;37.63;20.87;;;;;;;;;;6171217;28;20019;-74
2022/10/22 00:36:33;;;;;;;38.40;21.27;;;;;;;;;;6159409;28;20025;-75
2022/10/22 00:39:33;;;;;;;37.77;22.07;;;;;;;;;;6154999;28;20014;-75
2022/10/22 00:42:33;;;;;;;38.53;20.87;;;;;;;;;;6150867;28;20270;-75
2022/10/22 00:45:33;;;;;;;38.05;21.17;;;;;;;;;;6169698;28;20266;-75
2022/10/22 00:48:34;;;;;;;40.10;22.65;;;;;;;;;;6155614;28;20274;-74
2022/10/22 00:51:34;;;;;;;35.97;19.10;;;;;;;;;;6168593;28;20023;-75
2022/10/22 00:54:35;;;;;;;39.10;21.13;;;;;;;;;;6175402;28;20054;-75
2022/10/22 00:57:35;;;;;;;31.27;20.95;;;;;;;;;;6172918;28;20034;-75
2022/10/22 01:00:36;;;;;;;36.53;19.53;;;;;;;;;;6172590;28;20030;-75
2022/10/22 01:03:36;;;;;;;32.17;19.77;;;;;;;;;;6169805;28;20019;-75
2022/10/22 01:06:36;;;;;;;34.50;18.90;;;;;;;;;;6168945;28;20042;-75
2022/10/22 01:09:41;;;;;;;45.90;22.47;;;;;;;;;;6173104;28;20023;-75
2022/10/22 01:12:49;;;;;;;34.42;19.52;;;;;;;;;;6171938;28;20036;-75
2022/10/22 01:15:58;;;;;;;34.00;19.80;;;;;;;;;;6181711;28;20169;-75
2022/10/22 01:19:17;;;;;;;30.27;18.52;;;;;;;;;;6172436;28;20101;-75
2022/10/22 01:22:20;;;;;;;27.92;17.13;;;;;;;;;;6178162;28;20025;-75
2022/10/22 01:25:24;;;;;;;27.63;16.40;;;;;;;;;;6180404;28;20069;-75
2022/10/22 01:28:36;;;;;;;33.40;18.30;;;;;;;;;;6178970;28;20025;-75
2022/10/22 01:31:43;;;;;;;35.20;19.90;;;;;;;;;;6175250;28;20029;-75
2022/10/22 01:34:45;;;;;;;32.42;17.90;;;;;;;;;;6162238;28;20113;-75
2022/10/22 01:37:51;;;;;;;27.92;17.13;;;;;;;;;;6175578;28;20011;-75
2022/10/22 01:40:52;;;;;;;28.55;16.40;;;;;;;;;;6170622;28;20119;-75
2022/10/22 01:43:52;;;;;;;35.63;18.48;;;;;;;;;;6179972;28;20022;-75
2022/10/22 01:46:57;;;;;;;30.07;16.63;;;;;;;;;;6180930;28;20045;-75
2022/10/22 01:50:12;;;;;;;25.98;16.25;;;;;;;;;;6177227;28;20313;-75
2022/10/22 01:53:21;;;;;;;30.65;16.00;;;;;;;;;;6172633;28;20027;-75
2022/10/22 01:56:40;;;;;;;28.55;15.88;;;;;;;;;;6163762;28;20462;-75
2022/10/22 01:59:43;;;;;;;25.27;15.27;;;;;;;;;;6185779;28;20015;-75
2022/10/22 02:03:02;;;;;;;25.65;15.50;;;;;;;;;;6162647;28;20019;-75
2022/10/22 02:06:07;;;;;;;29.13;15.27;;;;;;;;;;6170729;28;20522;-75
2022/10/22 02:09:08;;;;;;;24.50;14.00;;;;;;;;;;6172661;28;20364;-75
2022/10/22 02:12:09;;;;;;;27.08;14.90;;;;;;;;;;6164137;28;20026;-75
2022/10/22 02:15:11;;;;;;;31.45;14.38;;;;;;;;;;6163878;28;20031;-75
2022/10/22 02:18:11;;;;;;;23.55;12.60;;;;;;;;;;6179809;28;20023;-75
2022/10/22 02:21:12;;;;;;;22.63;13.63;;;;;;;;;;6162528;28;20023;-75
2022/10/22 02:24:12;;;;;;;25.95;13.57;;;;;;;;;;6163284;28;20025;-75
2022/10/22 02:27:31;;;;;;;21.63;10.90;;;;;;;;;;6180527;28;20452;-75
2022/10/22 02:30:32;;;;;;;31.88;15.75;;;;;;;;;;6167687;28;20046;-75
2022/10/22 02:33:34;;;;;;;23.57;15.43;;;;;;;;;;6175853;28;20097;-75
2022/10/22 02:36:35;;;;;;;29.17;14.75;;;;;;;;;;6176191;28;20282;-75
2022/10/22 02:39:36;;;;;;;28.90;14.47;;;;;;;;;;6180844;28;20038;-75
2022/10/22 02:42:37;;;;;;;27.33;15.25;;;;;;;;;;6169876;28;20255;-75
2022/10/22 02:45:38;;;;;;;32.67;17.50;;;;;;;;;;6160228;28;20053;-75
2022/10/22 02:48:38;;;;;;;33.87;18.00;;;;;;;;;;6176956;28;20026;-75
2022/10/22 02:51:38;;;;;;;28.63;17.23;;;;;;;;;;6189645;28;20272;-75
2022/10/22 02:54:38;;;;;;;24.80;15.67;;;;;;;;;;6175077;28;20030;-75
2022/10/22 02:57:38;;;;;;;29.75;15.10;;;;;;;;;;6176215;28;20110;-75
2022/10/22 03:00:39;;;;;;;26.73;16.23;;;;;;;;;;6176066;28;20273;-75
2022/10/22 03:03:39;;;;;;;23.98;14.73;;;;;;;;;;6175664;28;20495;-75
2022/10/22 03:06:42;;;;;;;26.73;14.75;;;;;;;;;;6158172;28;20070;-75
2022/10/22 03:09:42;;;;;;;25.88;14.40;;;;;;;;;;6175610;28;20034;-75
2022/10/22 03:12:43;;;;;;;23.80;14.57;;;;;;;;;;6173333;28;20023;-75
2022/10/22 03:15:43;;;;;;;31.83;15.75;;;;;;;;;;6175425;28;20034;-75
2022/10/22 03:18:43;;;;;;;28.65;14.65;;;;;;;;;;6158068;28;20019;-75
2022/10/22 03:21:48;;;;;;;22.70;13.73;;;;;;;;;;6156285;28;20098;-75
2022/10/22 03:24:51;;;;;;;27.58;14.73;;;;;;;;;;6173501;28;20258;-75
2022/10/22 03:27:53;;;;;;;26.80;16.48;;;;;;;;;;6173152;28;20023;-75
2022/10/22 03:30:53;;;;;;;;;;;;;;;;;;6174338;28;20018;-75
2022/10/22 03:33:53;;;;;;;20.25;11.80;;;;;;;;;;6163406;28;19953;-75
2022/10/22 03:36:55;;;;;;;26.40;14.32;;;;;;;;;;6172712;28;20202;-75
2022/10/22 03:39:55;;;;;;;26.48;13.88;;;;;;;;;;6172437;28;20038;-75
2022/10/22 03:42:55;;;;;;;27.30;14.30;;;;;;;;;;6158404;28;20026;-75
2022/10/22 03:45:55;;;;;;;27.20;15.48;;;;;;;;;;6158690;28;20070;-75
2022/10/22 03:48:56;;;;;;;27.30;15.13;;;;;;;;;;6174448;28;20036;-75
2022/10/22 03:51:56;;;;;;;37.23;18.73;;;;;;;;;;6164091;28;20667;-75
2022/10/22 03:54:56;;;;;;;33.73;17.70;;;;;;;;;;6174181;28;20420;-75
2022/10/22 03:57:56;;;;;;;32.40;17.13;;;;;;;;;;6175264;28;20490;-75
2022/10/22 04:01:02;;;;;;;33.27;16.33;;;;;;;;;;6179076;28;20097;-75
2022/10/22 04:04:02;;;;;;;31.52;16.67;;;;;;;;;;6182959;28;20258;-75
2022/10/22 04:07:03;;;;;;;30.00;16.20;;;;;;;;;;6157254;28;20068;-75
2022/10/22 04:10:04;;;;;;;32.17;18.38;;;;;;;;;;6174077;28;20106;-75
2022/10/22 04:13:04;;;;;;;33.63;17.38;;;;;;;;;;6173862;28;20034;-75
2022/10/22 04:16:07;;;;;;;35.50;18.92;;;;;;;;;;6168603;28;20027;-75
2022/10/22 04:19:07;;;;;;;36.20;18.10;;;;;;;;;;6172128;28;20022;-75
2022/10/22 04:22:07;;;;;;;25.90;15.97;;;;;;;;;;6152448;28;20490;-74
2022/10/22 04:25:08;;;;;;;29.55;17.52;;;;;;;;;;6169289;28;20281;-74
2022/10/22 04:28:08;;;;;;;29.43;16.23;;;;;;;;;;6157694;28;20081;-75
2022/10/22 04:31:09;;;;;;;27.75;16.63;;;;;;;;;;6170411;28;20102;-75
2022/10/22 04:34:09;;;;;;;30.17;17.17;;;;;;;;;;6156795;28;20027;-75
2022/10/22 04:37:09;;;;;;;29.57;17.73;;;;;;;;;;6173374;28;20054;-75
2022/10/22 04:40:10;;;;;;;32.45;16.17;;;;;;;;;;6171959;28;20349;-75
2022/10/22 04:43:10;;;;;;;28.27;16.15;;;;;;;;;;6154152;28;20494;-75
2022/10/22 04:46:11;;;;;;;32.67;17.15;;;;;;;;;;6172881;28;20097;-75
2022/10/22 04:49:11;;;;;;;28.43;15.80;;;;;;;;;;6171848;28;20486;-75
2022/10/22 04:52:12;;;;;;;22.40;14.00;;;;;;;;;;6155378;28;20029;-75
2022/10/22 04:55:12;;;;;;;21.35;14.07;;;;;;;;;;6172515;28;20101;-75
2022/10/22 04:58:12;;;;;;;21.94;12.64;;;;;;;;;;6162654;28;20047;-75
2022/10/22 05:01:17;;;;;;;24.50;12.30;;;;;;;;;;6155812;28;20011;-75
2022/10/22 05:04:18;;;;;;;25.80;12.68;;;;;;;;;;6152100;28;20189;-75
2022/10/22 05:07:18;;;;;;;19.98;11.90;;;;;;;;;;6164331;28;20065;-75
2022/10/22 05:10:19;;;;;;;28.37;11.33;;;;;;;;;;6165769;28;20018;-75
2022/10/22 05:13:19;;;;;;;19.10;11.30;;;;;;;;;;6148928;28;20110;-75
2022/10/22 05:16:19;;;;;;;21.92;11.82;;;;;;;;;;6164456;28;20292;-75
2022/10/22 05:19:22;;;;;;;27.15;15.35;;;;;;;;;;6162449;28;20391;-75
2022/10/22 05:22:22;;;;;;;25.20;14.18;;;;;;;;;;6166724;28;20378;-75
2022/10/22 05:25:23;;;;;;;25.00;13.23;;;;;;;;;;6172736;28;20034;-75
2022/10/22 05:28:23;;;;;;;23.17;12.63;;;;;;;;;;6172031;28;20270;-75
2022/10/22 05:31:23;;;;;;;28.93;14.47;;;;;;;;;;6151884;28;20266;-74
2022/10/22 05:34:23;;;;;;;24.38;15.38;;;;;;;;;;6170336;28;20687;-75
2022/10/22 05:37:24;;;;;;;21.92;14.73;;;;;;;;;;6159947;28;20124;-75
2022/10/22 05:40:24;;;;;;;25.30;14.15;;;;;;;;;;6170392;28;20022;-75
2022/10/22 05:43:24;;;;;;;23.35;13.38;;;;;;;;;;6171078;28;20665;-75
2022/10/22 05:46:25;;;;;;;28.85;17.45;;;;;;;;;;6171550;28;20266;-75
2022/10/22 05:49:25;;;;;;;29.85;18.02;;;;;;;;;;6159256;28;20019;-75
2022/10/22 05:52:26;;;;;;;30.07;19.47;;;;;;;;;;6158243;28;20503;-74
2022/10/22 05:55:26;;;;;;;30.25;18.95;;;;;;;;;;6167674;28;20394;-74
2022/10/22 05:58:26;;;;;;;32.50;16.33;;;;;;;;;;6172023;28;20057;-74
2022/10/22 06:01:30;;;;;;;26.53;14.77;;;;;;;;;;6170819;28;20019;-74
2022/10/22 06:04:31;;;;;;;30.02;17.55;;;;;;;;;;6170394;28;20509;-74
2022/10/22 06:07:32;;;;;;;26.90;16.33;;;;;;;;;;6172127;28;20035;-74
2022/10/22 06:10:32;;;;;;;36.20;18.95;;;;;;;;;;6166318;28;20018;-74
2022/10/22 06:13:32;;;;;;;26.23;15.93;;;;;;;;;;6191453;28;20023;-74
2022/10/22 06:16:32;;;;;;;23.50;13.00;;;;;;;;;;6158462;28;20078;-74
2022/10/22 06:19:33;;;;;;;20.40;13.25;;;;;;;;;;6176639;28;20510;-74
2022/10/22 06:22:33;;;;;;;24.53;11.93;;;;;;;;;;6168831;28;20263;-74
2022/10/22 06:25:33;;;;;;;27.85;19.15;;;;;;;;;;6171369;28;20063;-75
2022/10/22 06:28:34;;;;;;;29.97;19.03;;;;;;;;;;6152924;28;20027;-74
2022/10/22 06:31:37;;;;;;;21.97;15.00;;;;;;;;;;6167051;28;20108;-74
2022/10/22 06:34:37;;;;;;;23.48;16.10;;;;;;;;;;6154745;28;20566;-74
2022/10/22 06:37:38;;;;;;;20.50;12.83;;;;;;;;;;6159146;28;20015;-74
2022/10/22 06:40:42;;;;;;;23.67;12.47;;;;;;;;;;6149191;28;20019;-74
2022/10/22 06:43:46;;;;;;;22.70;12.40;;;;;;;;;;6160314;28;20395;-74
2022/10/22 06:46:51;;;;;;;24.00;14.02;;;;;;;;;;6154426;28;20054;-74
2022/10/22 06:49:51;;;;;;;22.15;14.60;;;;;;;;;;6155762;28;20484;-74
2022/10/22 06:52:51;;;;;;;27.02;16.65;;;;;;;;;;6154440;28;20042;-74
2022/10/22 06:55:51;;;;;;;28.60;18.07;;;;;;;;;;6163029;28;20026;-75
2022/10/22 06:58:53;;;;;;;28.07;14.17;;;;;;;;;;6167609;28;20035;-74
2022/10/22 07:01:53;;;;;;;24.88;14.85;;;;;;;;;;6155813;28;20023;-74
2022/10/22 07:04:53;;;;;;;22.08;12.65;;;;;;;;;;6162885;28;20046;-74
2022/10/22 07:07:53;;;;;;;26.60;13.73;;;;;;;;;;6174951;28;20073;-75
2022/10/22 07:10:53;;;;;;;19.38;11.82;;;;;;;;;;6171474;28;20018;-75
2022/10/22 07:13:55;;;;;;;19.77;11.73;;;;;;;;;;6155166;28;20026;-75
2022/10/22 07:16:55;;;;;;;19.70;9.52;;;;;;;;;;6169137;28;20035;-74
2022/10/22 07:19:56;;;;;;;18.53;9.90;;;;;;;;;;6156807;28;20018;-74
2022/10/22 07:22:56;;;;;;;25.15;10.80;;;;;;;;;;6156725;28;20026;-75
2022/10/22 07:25:56;;;;;;;18.50;10.93;;;;;;;;;;6151564;28;20113;-74
2022/10/22 07:28:57;;;;;;;22.37;11.30;;;;;;;;;;6172746;28;20023;-74
2022/10/22 07:31:58;;;;;;;18.98;11.93;;;;;;;;;;6148995;28;20447;-73
2022/10/22 07:34:58;;;;;;;22.53;11.10;;;;;;;;;;6191851;28;20026;-74
2022/10/22 07:37:58;;;;;;;16.17;10.20;;;;;;;;;;6178575;28;20019;-74
2022/10/22 07:40:59;;;;;;;19.77;12.00;;;;;;;;;;6158972;28;20057;-73
2022/10/22 07:43:59;;;;;;;30.73;14.40;;;;;;;;;;6173883;28;20034;-74
2022/10/22 07:46:59;;;;;;;33.13;17.77;;;;;;;;;;6154350;28;20021;-73
2022/10/22 07:50:00;;;;;;;21.13;11.80;;;;;;;;;;6169281;28;20025;-73
2022/10/22 07:53:00;;;;;;;20.33;12.77;;;;;;;;;;6155048;28;20011;-74
2022/10/22 07:56:00;;;;;;;50.90;28.58;;;;;;;;;;6142025;29;20023;-73
2022/10/22 07:59:00;;;;;;;22.83;13.10;;;;;;;;;;6173222;28;20505;-73
2022/10/22 08:02:00;;;;;;;21.17;11.85;;;;;;;;;;6155976;28;20022;-74
2022/10/22 08:05:01;;;;;;;20.42;11.60;;;;;;;;;;6173053;28;20074;-74
2022/10/22 08:08:01;;;;;;;23.33;12.33;;;;;;;;;;6173258;28;20027;-74
2022/10/22 08:11:01;;;;;;;26.33;14.90;;;;;;;;;;6176089;28;20019;-74
2022/10/22 08:14:01;;;;;;;29.40;15.30;;;;;;;;;;6183011;28;20033;-74
2022/10/22 08:17:01;;;;;;;32.22;18.92;;;;;;;;;;6174274;28;20211;-74
2022/10/22 08:20:02;;;;;;;42.80;17.77;;;;;;;;;;6179947;28;20026;-73
2022/10/22 08:23:02;;;;;;;24.43;13.87;;;;;;;;;;6179292;28;20057;-74
2022/10/22 08:26:03;;;;;;;26.27;13.77;;;;;;;;;;6170166;28;20102;-74
2022/10/22 08:29:03;;;;;;;22.53;12.60;;;;;;;;;;6162897;28;20034;-74
2022/10/22 08:32:03;;;;;;;22.27;12.47;;;;;;;;;;6147196;28;20028;-74
2022/10/22 08:35:04;;;;;;;21.87;13.07;;;;;;;;;;6167727;28;20015;-74
2022/10/22 08:38:04;;;;;;;20.83;12.20;;;;;;;;;;6159024;28;20015;-74
2022/10/22 08:41:12;;;;;;;21.57;14.17;;;;;;;;;;6159331;28;20053;-74
2022/10/22 08:44:36;;;;;;;27.60;14.93;;;;;;;;;;6154262;28;20027;-74
2022/10/22 08:47:54;;;;;;;94.00;44.65;;;;;;;;;;6172198;28;20061;-74
2022/10/22 08:50:56;;;;;;;62.95;30.60;;;;;;;;;;6175036;28;20385;-74
2022/10/22 08:53:56;;;;;;;19.52;12.27;;;;;;;;;;6154383;28;20015;-75
2022/10/22 08:57:08;;;;;;;16.13;10.60;;;;;;;;;;6159840;28;20042;-74
2022/10/22 09:00:21;;;;;;;19.75;11.85;;;;;;;;;;6176628;28;20782;-74
2022/10/22 09:03:27;;;;;;;20.10;12.15;;;;;;;;;;6180345;28;20084;-74
2022/10/22 09:06:30;;;;;;;19.63;10.98;;;;;;;;;;6146650;28;20050;-74
2022/10/22 09:09:33;;;;;;;14.82;9.68;;;;;;;;;;6148029;29;20053;-73
2022/10/22 09:12:34;;;;;;;23.02;11.57;;;;;;;;;;6148505;29;20023;-73
2022/10/22 09:15:34;;;;;;;17.25;10.55;;;;;;;;;;6147434;28;20022;-74
2022/10/22 09:18:46;;;;;;;24.00;13.55;;;;;;;;;;6162670;28;20051;-74
2022/10/22 09:21:46;;;;;;;;;;;;;;;;;;6146475;28;20020;-74
2022/10/22 09:24:47;;;;;;;22.23;12.85;;;;;;;;;;6148131;28;19957;-74
2022/10/22 09:27:48;;;;;;;24.17;12.10;;;;;;;;;;6148187;28;20015;-74
2022/10/22 09:30:48;;;;;;;22.53;11.67;;;;;;;;;;6145095;28;20034;-74
2022/10/22 09:33:49;;;;;;;18.83;12.57;;;;;;;;;;6176447;28;20019;-74
2022/10/22 09:36:59;;;;;;;25.85;13.05;;;;;;;;;;6148402;28;20083;-74
2022/10/22 09:40:02;;;;;;;21.98;12.38;;;;;;;;;;6149709;28;20058;-74
2022/10/22 09:43:02;;;;;;;26.48;14.45;;;;;;;;;;6146625;28;20028;-75
2022/10/22 09:46:04;;;;;;;19.00;11.57;;;;;;;;;;6143533;28;20019;-75
2022/10/22 09:49:04;;;;;;;;;;;;;;;;;;6142431;28;20600;-75
2022/10/22 09:52:22;;;;;;;21.20;12.27;;;;;;;;;;6144119;28;19906;-73
2022/10/22 09:55:23;;;;;;;21.63;11.88;;;;;;;;;;6151471;29;20369;-74
2022/10/22 09:58:24;;;;;;;24.20;12.53;;;;;;;;;;6153602;28;20007;-75
2022/10/22 10:01:25;;;;;;;23.73;13.47;;;;;;;;;;6151276;28;20258;-75
2022/10/22 10:04:26;;;;;;;31.38;15.20;;;;;;;;;;6154759;28;20015;-75
2022/10/22 10:07:29;;;;;;;29.97;17.13;;;;;;;;;;6168811;28;20399;-75
2022/10/22 10:10:33;;;;;;;33.80;16.65;;;;;;;;;;6168648;28;20030;-75
2022/10/22 10:13:33;;;;;;;33.10;18.23;;;;;;;;;;6154596;28;20023;-75
2022/10/22 10:16:33;;;;;;;29.67;16.13;;;;;;;;;;6165523;28;20019;-75
2022/10/22 10:19:38;;;;;;;27.77;13.10;;;;;;;;;;6167499;28;20032;-75
2022/10/22 10:22:54;;;;;;;24.67;14.35;;;;;;;;;;6150670;29;20018;-75
2022/10/22 10:25:57;;;;;;;28.25;15.68;;;;;;;;;;6171561;28;20030;-75
2022/10/22 10:29:00;;;;;;;20.17;14.45;;;;;;;;;;6175579;28;20521;-75
2022/10/22 10:32:07;;;;;;;30.45;16.40;;;;;;;;;;6162705;28;20518;-74
2022/10/22 10:35:27;;;;;;;27.63;15.95;;;;;;;;;;6159127;28;20027;-74
2022/10/22 10:38:33;;;;;;;23.23;14.32;;;;;;;;;;6175528;28;20030;-74
2022/10/22 10:41:48;;;;;;;27.40;15.45;;;;;;;;;;6188323;28;20034;-76
2022/10/22 10:44:55;;;;;;;28.45;16.13;;;;;;;;;;6153553;28;20030;-76
2022/10/22 10:48:01;;;;;;;35.28;18.52;;;;;;;;;;6158860;28;20049;-76
2022/10/22 10:51:20;;;;;;;23.40;15.07;;;;;;;;;;6188478;28;20027;-76
2022/10/22 10:54:53;;;;;;;27.35;16.60;;;;;;;;;;6166142;28;20058;-75
2022/10/22 10:58:11;;;;;;;24.55;16.27;;;;;;;;;;6126297;28;20039;-76
2022/10/22 11:01:17;;;;;;;27.38;14.45;;;;;;;;;;6175823;28;20394;-75
2022/10/22 11:04:37;;;;;;;26.70;16.65;;;;;;;;;;6174486;28;20045;-76
2022/10/22 11:07:41;;;;;;;28.27;16.23;;;;;;;;;;6173830;28;20042;-76
2022/10/22 11:10:45;;;;;;;26.90;15.70;;;;;;;;;;6175358;28;20101;-76
2022/10/22 11:14:12;;;;;;;27.73;16.40;;;;;;;;;;6157876;28;20118;-76
2022/10/22 11:17:16;;;;;;;31.67;17.00;;;;;;;;;;6164454;28;20109;-76
2022/10/22 11:20:16;;;;;;;36.13;20.73;;;;;;;;;;6173986;28;20130;-76
2022/10/22 11:23:28;;;;;;;62.90;33.93;;;;;;;;;;6174943;28;20019;-76
2022/10/22 11:26:37;;;;;;;106.60;55.67;;;;;;;;;;6151763;28;20026;-73
2022/10/22 11:29:40;;;;;;;125.95;61.67;;;;;;;;;;6170329;28;20045;-75
2022/10/22 11:32:42;;;;;;;150.50;70.57;;;;;;;;;;6173996;28;20046;-76
2022/10/22 11:35:43;;;;;;;114.93;55.45;;;;;;;;;;6174893;28;20031;-76
2022/10/22 11:38:44;;;;;;;71.93;32.50;;;;;;;;;;6175143;28;20054;-76
2022/10/22 11:41:44;;;;;;;39.07;21.67;;;;;;;;;;6181383;28;20018;-76
2022/10/22 11:44:48;;;;;;;37.27;20.30;;;;;;;;;;6178496;28;20045;-76
2022/10/22 11:48:05;;;;;;;36.63;21.70;;;;;;;;;;6173171;28;20030;-76
2022/10/22 11:51:25;;;;;;;33.47;21.05;;;;;;;;;;6155859;28;20026;-76
2022/10/22 11:54:41;;;;;;;33.40;21.75;;;;;;;;;;6173083;28;20401;-76
2022/10/22 11:57:41;;;;;;;40.13;23.02;;;;;;;;;;6157609;28;20033;-76
2022/10/22 12:00:46;;;;;;;39.75;23.02;;;;;;;;;;6156747;28;20015;-76
2022/10/22 12:04:09;;;;;;;43.80;23.63;;;;;;;;;;6174024;28;20118;-76
2022/10/22 12:07:30;;;;;;;37.72;21.80;;;;;;;;;;6162020;28;20092;-76
2022/10/22 12:11:03;;;;;;;36.40;20.55;;;;;;;;;;6153029;28;20025;-76
2022/10/22 12:14:21;;;;;;;36.53;20.63;;;;;;;;;;6141656;28;20085;-76
2022/10/22 12:17:22;;;;;;;35.42;21.00;;;;;;;;;;6175102;28;20101;-75
2022/10/22 12:20:24;;;;;;;40.37;22.40;;;;;;;;;;6173971;28;20014;-75
2022/10/22 12:23:27;;;;;;;33.25;21.63;;;;;;;;;;6180924;28;20026;-75
2022/10/22 12:26:29;;;;;;;29.00;19.10;;;;;;;;;;6175113;28;20391;-76
2022/10/22 12:29:31;;;;;;;33.30;21.33;;;;;;;;;;6170417;28;20478;-76
2022/10/22 12:32:33;;;;;;;31.20;19.48;;;;;;;;;;6173897;28;20023;-76
2022/10/22 12:35:34;;;;;;;;;;;;;;;;;;6157177;28;20394;-76
2022/10/22 12:38:35;;;;;;;32.00;19.80;;;;;;;;;;6173398;28;20310;-76
2022/10/22 12:41:36;;;;;;;33.00;18.17;;;;;;;;;;6162863;28;20010;-76
2022/10/22 12:44:36;;;;;;;34.77;20.23;;;;;;;;;;6158042;28;20013;-76
2022/10/22 12:47:36;;;;;;;34.40;20.17;;;;;;;;;;6152879;28;20027;-76
2022/10/22 12:50:41;;;;;;;29.27;17.88;;;;;;;;;;6160177;28;20026;-74
2022/10/22 12:53:44;;;;;;;34.25;18.73;;;;;;;;;;6173914;28;20333;-73
2022/10/22 12:56:46;;;;;;;31.85;20.55;;;;;;;;;;6169364;28;20015;-73
2022/10/22 12:59:50;;;;;;;32.42;20.17;;;;;;;;;;6165328;28;20022;-74
2022/10/22 13:02:51;;;;;;;32.55;20.33;;;;;;;;;;6173462;28;20028;-74
2022/10/22 13:05:51;;;;;;;34.10;18.93;;;;;;;;;;6170672;28;20110;-74
2022/10/22 13:09:00;;;;;;;31.67;19.83;;;;;;;;;;6169317;28;20363;-74
2022/10/22 13:12:04;;;;;;;34.35;20.10;;;;;;;;;;6162567;28;20019;-74
2022/10/22 13:15:18;;;;;;;33.10;19.98;;;;;;;;;;6154320;28;20041;-74
2022/10/22 13:18:23;;;;;;;33.20;19.65;;;;;;;;;;6169865;28;20041;-74
2022/10/22 13:21:27;;;;;;;36.38;21.08;;;;;;;;;;6160125;28;20378;-74
2022/10/22 13:24:29;;;;;;;31.40;20.38;;;;;;;;;;6154795;28;20153;-74
2022/10/22 13:27:29;;;;;;;;;;;;;;;;;;6171158;28;20081;-74
2022/10/22 13:30:36;;;;;;;28.58;18.02;;;;;;;;;;6172191;28;19910;-74
2022/10/22 13:33:40;;;;;;;31.88;18.70;;;;;;;;;;6171902;28;20478;-74
2022/10/22 13:36:41;;;;;;;36.08;21.83;;;;;;;;;;6167354;28;20022;-74
2022/10/22 13:39:41;;;;;;;37.20;19.50;;;;;;;;;;6173706;28;20026;-74
2022/10/22 13:42:41;;;;;;;34.72;20.40;;;;;;;;;;6159259;28;20356;-74
2022/10/22 13:45:43;;;;;;;36.43;22.03;;;;;;;;;;6173661;28;20034;-74
2022/10/22 13:48:44;;;;;;;35.38;22.42;;;;;;;;;;6169082;28;20034;-74
2022/10/22 13:51:45;;;;;;;40.03;23.90;;;;;;;;;;6154075;28;20093;-74
2022/10/22 13:54:45;;;;;;;37.53;23.57;;;;;;;;;;6172384;28;20031;-74
2022/10/22 13:57:45;;;;;;;42.45;24.13;;;;;;;;;;6172043;28;20463;-74
2022/10/22 14:00:48;;;;;;;38.87;24.70;;;;;;;;;;6183021;28;20019;-74
2022/10/22 14:03:49;;;;;;;38.83;24.70;;;;;;;;;;6175277;28;20019;-74
2022/10/22 14:06:49;;;;;;;41.80;24.13;;;;;;;;;;6185131;28;20050;-74
2022/10/22 14:09:49;;;;;;;39.23;24.23;;;;;;;;;;6171153;28;20053;-74
2022/10/22 14:12:50;;;;;;;45.83;26.53;;;;;;;;;;6181789;28;20027;-74
2022/10/22 14:15:51;;;;;;;46.10;27.73;;;;;;;;;;6161717;28;20045;-75
2022/10/22 14:18:51;;;;;;;48.67;28.03;;;;;;;;;;6157308;28;20046;-74
2022/10/22 14:21:52;;;;;;;44.73;29.00;;;;;;;;;;6152077;28;20431;-74
2022/10/22 14:24:53;;;;;;;48.10;31.70;;;;;;;;;;6145314;28;20043;-74
2022/10/22 14:27:53;;;;;;;39.97;26.60;;;;;;;;;;6161199;28;20033;-74
2022/10/22 14:30:54;;;;;;;43.37;26.93;;;;;;;;;;6154314;28;20486;-73
2022/10/22 14:33:54;;;;;;;44.77;26.57;;;;;;;;;;6160514;28;20114;-74
2022/10/22 14:36:54;;;;;;;43.33;26.87;;;;;;;;;;6148521;28;20822;-75
2022/10/22 14:40:00;;;;;;;46.22;24.80;;;;;;;;;;6153632;28;20025;-74
2022/10/22 14:43:00;;;;;;;40.95;25.58;;;;;;;;;;6161866;28;20034;-75
2022/10/22 14:46:00;;;;;;;45.35;26.77;;;;;;;;;;6160159;28;20026;-74
2022/10/22 14:49:01;;;;;;;40.40;26.70;;;;;;;;;;6158722;28;20015;-74
2022/10/22 14:52:01;;;;;;;45.13;28.30;;;;;;;;;;6161255;28;20511;-74
2022/10/22 14:55:02;;;;;;;43.87;28.27;;;;;;;;;;6153101;28;20026;-75
2022/10/22 14:58:02;;;;;;;42.57;26.77;;;;;;;;;;6145621;28;20029;-75
2022/10/22 15:01:03;;;;;;;44.07;29.63;;;;;;;;;;6150961;28;20789;-75
2022/10/22 15:04:03;;;;;;;47.80;29.80;;;;;;;;;;6158058;28;20394;-74
2022/10/22 15:07:04;;;;;;;44.53;30.90;;;;;;;;;;6158119;28;20047;-75
2022/10/22 15:10:04;;;;;;;45.40;28.13;;;;;;;;;;6151204;28;20136;-74
2022/10/22 15:13:04;;;;;;;50.67;31.20;;;;;;;;;;6137373;28;20356;-74
2022/10/22 15:16:05;;;;;;;50.27;30.20;;;;;;;;;;6151979;28;20499;-74
2022/10/22 15:19:06;;;;;;;48.57;33.77;;;;;;;;;;6153952;28;20336;-74
2022/10/22 15:22:07;;;;;;;50.20;34.13;;;;;;;;;;6157296;28;22142;-74
2022/10/22 15:25:07;;;;;;;54.97;35.27;;;;;;;;;;6153816;28;20015;-74
2022/10/22 15:28:08;;;;;;;56.43;36.13;;;;;;;;;;6157475;28;20022;-73
2022/10/22 15:31:11;;;;;;;48.07;31.73;;;;;;;;;;6143217;28;20027;-75
2022/10/22 15:34:11;;;;;;;48.30;30.20;;;;;;;;;;6167672;28;20026;-74
2022/10/22 15:37:11;;;;;;;45.93;30.57;;;;;;;;;;6168347;28;20102;-74
2022/10/22 15:40:11;;;;;;;50.07;32.70;;;;;;;;;;6161846;28;20022;-75
2022/10/22 15:43:12;;;;;;;51.50;32.50;;;;;;;;;;6162263;28;20015;-75
2022/10/22 15:46:14;;;;;;;52.33;31.83;;;;;;;;;;6169419;28;20543;-75
2022/10/22 15:49:14;;;;;;;59.88;36.70;;;;;;;;;;6166192;28;20030;-74
2022/10/22 15:52:14;;;;;;;60.13;40.80;;;;;;;;;;6160632;28;20391;-74
2022/10/22 15:55:15;;;;;;;64.10;42.87;;;;;;;;;;6163594;28;20058;-74
2022/10/22 15:58:15;;;;;;;69.23;44.93;;;;;;;;;;6171731;28;20038;-74
2022/10/22 16:01:15;;;;;;;70.88;45.67;;;;;;;;;;6171424;28;20019;-74
2022/10/22 16:04:15;;;;;;;69.72;44.72;;;;;;;;;;6149287;28;20446;-74
2022/10/22 16:07:15;;;;;;;76.60;50.93;;;;;;;;;;6171498;28;20054;-74
2022/10/22 16:10:16;;;;;;;68.40;45.05;;;;;;;;;;6165008;28;20029;-74
2022/10/22 16:13:16;;;;;;;71.63;46.45;;;;;;;;;;6169800;28;20026;-74
2022/10/22 16:16:16;;;;;;;64.70;43.85;;;;;;;;;;6150983;28;20019;-74
2022/10/22 16:19:17;;;;;;;76.55;49.97;;;;;;;;;;6161238;28;20027;-74
2022/10/22 16:22:18;;;;;;;90.55;56.55;;;;;;;;;;6161720;28;20273;-73
2022/10/22 16:25:18;;;;;;;79.07;50.43;;;;;;;;;;6165052;28;20027;-74
2022/10/22 16:28:18;;;;;;;78.83;46.23;;;;;;;;;;6172837;28;20398;-74
2022/10/22 16:31:18;;;;;;;66.53;43.67;;;;;;;;;;6176768;28;20019;-74
2022/10/22 16:34:19;;;;;;;78.17;49.83;;;;;;;;;;6171425;28;20030;-74
2022/10/22 16:37:19;;;;;;;84.35;50.90;;;;;;;;;;6159575;28;20078;-74
2022/10/22 16:40:19;;;;;;;70.63;42.33;;;;;;;;;;6146219;28;20019;-74
2022/10/22 16:43:19;;;;;;;95.75;52.88;;;;;;;;;;6158343;28;20019;-74
2022/10/22 16:46:20;;;;;;;74.27;44.67;;;;;;;;;;6157409;28;20022;-74
2022/10/22 16:49:20;;;;;;;65.47;40.87;;;;;;;;;;6160611;28;20483;-74
2022/10/22 16:52:21;;;;;;;56.63;37.40;;;;;;;;;;6171260;28;20031;-73
2022/10/22 16:55:21;;;;;;;64.03;39.10;;;;;;;;;;6166686;28;20031;-74
2022/10/22 16:58:21;;;;;;;56.25;38.08;;;;;;;;;;6166587;28;20279;-74
2022/10/22 17:01:25;;;;;;;75.00;43.60;;;;;;;;;;6171655;28;20030;-74
2022/10/22 17:04:25;;;;;;;103.45;63.28;;;;;;;;;;6161091;28;20027;-74
2022/10/22 17:07:25;;;;;;;112.93;70.80;;;;;;;;;;6164376;28;20139;-73
2022/10/22 17:10:25;;;;;;;111.07;72.63;;;;;;;;;;6160886;28;20035;-73
2022/10/22 17:13:25;;;;;;;113.55;70.47;;;;;;;;;;6151001;28;20046;-73
2022/10/22 17:16:26;;;;;;;91.07;58.20;;;;;;;;;;6171169;28;20077;-73
2022/10/22 17:19:26;;;;;;;77.57;49.00;;;;;;;;;;6172172;28;20026;-74
2022/10/22 17:22:26;;;;;;;61.60;36.83;;;;;;;;;;6168330;28;20019;-74
2022/10/22 17:25:41;;;;;;;64.10;42.43;;;;;;;;;;6166757;28;20125;-73
2022/10/22 17:28:42;;;;;;;69.72;44.85;;;;;;;;;;6144417;28;20027;-74
2022/10/22 17:31:42;;;;;;;67.10;41.13;;;;;;;;;;6165490;28;20043;-74
2022/10/22 17:34:42;;;;;;;75.27;46.33;;;;;;;;;;6163962;28;20026;-74
2022/10/22 17:37:42;;;;;;;69.00;45.40;;;;;;;;;;6167133;28;20031;-74
2022/10/22 17:40:42;;;;;;;76.63;50.27;;;;;;;;;;6158857;28;20022;-74
2022/10/22 17:43:43;;;;;;;85.97;55.23;;;;;;;;;;6160934;28;20369;-74